Time;durP1;ratioP1;P1;durP2;ratioP2;P2;SDS_P1;SDS_P2;PMS_P1;PMS_P2;Temp;Humidity;BMP_temperature;BMP_pressure;BME280_temperature;BME280_humidity;BME280_pressure;Samples;Min_cycle;Max_cycle;Signal;HPM_P1;HPM_P2
2022/07/07 04:02:20;;;;;;;2.13;1.00;;;10.90;96.30;;;;;;5147936;23;20548;-75
2022/07/07 04:04:46;;;;;;;4.60;1.63;;;10.80;96.30;;;;;;5015659;28;20503;-74
2022/07/07 04:07:11;;;;;;;3.10;1.27;;;10.80;96.30;;;;;;5011285;28;20212;-73
2022/07/07 04:09:37;;;;;;;4.13;1.33;;;10.80;96.30;;;;;;5017805;28;20542;-74
2022/07/07 04:12:03;;;;;;;3.37;1.53;;;10.70;96.30;;;;;;5017789;28;20291;-75
2022/07/07 04:14:28;;;;;;;2.40;1.10;;;10.70;96.30;;;;;;4996315;28;20197;-74
2022/07/07 04:16:54;;;;;;;3.70;1.50;;;10.70;96.30;;;;;;4992962;28;20209;-75
2022/07/07 04:19:20;;;;;;;2.90;1.00;;;10.70;96.30;;;;;;4996532;28;20194;-75
2022/07/07 04:21:46;;;;;;;1.97;1.10;;;10.70;96.30;;;;;;4993041;28;20519;-75
2022/07/07 04:24:11;;;;;;;3.40;1.40;;;10.70;96.30;;;;;;4975973;28;20178;-75
2022/07/07 04:26:37;;;;;;;7.17;1.13;;;10.70;96.30;;;;;;4993222;28;20243;-75
2022/07/07 04:29:02;;;;;;;1.47;1.10;;;10.80;96.30;;;;;;4992683;28;20178;-75
2022/07/07 04:41:42;;;;;;;1.63;1.13;;;10.80;96.30;;;;;;5009904;28;20483;-76
2022/07/07 04:44:07;;;;;;;4.40;1.40;;;10.80;96.30;;;;;;5012768;28;20404;-77
2022/07/07 04:46:33;;;;;;;5.27;1.40;;;10.80;96.30;;;;;;5012750;28;20258;-76
2022/07/07 04:48:59;;;;;;;1.97;0.90;;;10.80;96.30;;;;;;4994810;28;20280;-76
2022/07/07 04:51:25;;;;;;;4.30;1.33;;;10.80;96.30;;;;;;5012378;28;20594;-76
2022/07/07 04:53:50;;;;;;;3.37;1.00;;;10.90;96.30;;;;;;5012488;28;20539;-76
2022/07/07 04:56:16;;;;;;;2.33;0.90;;;11.00;96.30;;;;;;5012489;28;20211;-78
2022/07/07 04:58:42;;;;;;;1.97;1.20;;;11.10;96.30;;;;;;5012190;28;20169;-78
2022/07/07 05:01:08;;;;;;;3.10;1.23;;;11.20;96.30;;;;;;5012524;28;20196;-78
2022/07/07 05:03:34;;;;;;;3.53;1.33;;;11.20;96.30;;;;;;5012544;28;20169;-78
2022/07/07 05:05:59;;;;;;;3.37;1.10;;;11.30;96.30;;;;;;4994955;28;20415;-78
2022/07/07 05:08:25;;;;;;;1.83;1.10;;;11.30;96.30;;;;;;4992248;28;20267;-78
2022/07/07 05:10:51;;;;;;;8.70;1.33;;;11.30;96.30;;;;;;4993320;28;20200;-70
2022/07/07 05:13:16;;;;;;;3.00;1.10;;;11.30;96.30;;;;;;4998896;28;20196;-78
2022/07/07 05:15:42;;;;;;;10.17;1.17;;;11.30;96.30;;;;;;5000093;28;20567;-78
2022/07/07 05:18:07;;;;;;;2.70;1.10;;;11.40;96.30;;;;;;5019575;28;20199;-80
2022/07/07 05:20:33;;;;;;;2.57;1.10;;;11.50;96.30;;;;;;4999044;28;20660;-79
2022/07/07 05:22:58;;;;;;;1.40;0.90;;;11.50;96.30;;;;;;5012532;28;20183;-79
2022/07/07 05:25:24;;;;;;;2.80;1.20;;;11.50;96.30;;;;;;4995233;28;20207;-79
2022/07/07 05:27:50;;;;;;;1.80;0.90;;;11.60;96.30;;;;;;5012261;28;20185;-79
2022/07/07 05:30:16;;;;;;;1.83;0.90;;;11.70;96.30;;;;;;5012694;28;20652;-79
2022/07/07 05:32:41;;;;;;;4.70;1.50;;;11.70;96.30;;;;;;5012216;28;20188;-79
2022/07/07 05:35:07;;;;;;;2.00;1.20;;;11.70;96.30;;;;;;5011687;28;20423;-79
2022/07/07 05:37:33;;;;;;;4.43;1.20;;;11.80;96.30;;;;;;5012264;28;20196;-79
2022/07/07 05:39:59;;;;;;;1.67;1.10;;;11.80;96.30;;;;;;5013309;28;20439;-79
2022/07/07 05:42:24;;;;;;;2.63;1.20;;;11.80;96.30;;;;;;5012973;28;20267;-79
2022/07/07 05:44:50;;;;;;;3.50;1.23;;;11.80;96.30;;;;;;4994717;28;20211;-79
2022/07/07 05:47:15;;;;;;;7.10;1.00;;;11.90;96.30;;;;;;5009224;28;20268;-79
2022/07/07 05:49:41;;;;;;;2.70;1.20;;;12.00;96.30;;;;;;5011397;28;20201;-79
2022/07/07 05:52:07;;;;;;;1.53;1.07;;;12.10;96.30;;;;;;4994039;28;20285;-77
2022/07/07 05:54:32;;;;;;;2.33;1.00;;;12.20;96.30;;;;;;5012692;28;20169;-77
2022/07/07 05:56:58;;;;;;;1.90;1.13;;;12.30;96.30;;;;;;5012592;28;20695;-79
2022/07/07 05:59:23;;;;;;;3.20;1.20;;;12.40;96.30;;;;;;5012414;28;20193;-79
2022/07/07 06:01:49;;;;;;;1.87;1.00;;;12.40;96.30;;;;;;5004898;28;20315;-77
2022/07/07 06:04:15;;;;;;;1.83;0.93;;;12.50;96.30;;;;;;4996157;28;21319;-78
2022/07/07 06:06:40;;;;;;;3.90;1.50;;;12.50;96.30;;;;;;5011971;28;20259;-77
2022/07/07 06:09:06;;;;;;;2.83;1.10;;;12.60;96.30;;;;;;4989724;28;20197;-78
2022/07/07 06:11:31;;;;;;;2.33;1.00;;;12.60;96.30;;;;;;5000754;28;20208;-78
2022/07/07 06:13:57;;;;;;;1.23;0.90;;;12.70;96.30;;;;;;5010218;28;20599;-78
2022/07/07 06:16:38;;;;;;;2.80;0.90;;;12.90;96.30;;;;;;5000423;28;20208;-76
2022/07/07 06:19:05;;;;;;;9.77;1.23;;;12.90;96.30;;;;;;5006970;28;20173;-78
2022/07/07 06:21:31;;;;;;;4.53;1.10;;;13.00;96.30;;;;;;5007131;28;20439;-78
2022/07/07 06:23:56;;;;;;;2.13;1.00;;;13.00;96.30;;;;;;5011775;28;20407;-78
2022/07/07 06:26:22;;;;;;;2.30;1.10;;;13.00;96.30;;;;;;4998621;28;20177;-79
2022/07/07 06:28:47;;;;;;;5.77;1.17;;;13.20;96.30;;;;;;4998279;28;20186;-79
2022/07/07 06:31:13;;;;;;;3.67;1.10;;;13.10;96.30;;;;;;4998160;28;20715;-78
2022/07/07 06:33:38;;;;;;;3.50;0.93;;;12.90;96.30;;;;;;4997943;28;20181;-77
2022/07/07 06:36:04;;;;;;;2.33;1.10;;;12.80;96.30;;;;;;4998023;28;20260;-78
2022/07/07 06:38:30;;;;;;;3.03;1.30;;;12.80;96.30;;;;;;5012929;28;20258;-78
2022/07/07 06:40:59;;;;;;;3.37;1.13;;;12.70;96.30;;;;;;5014381;28;20467;-79
2022/07/07 06:43:25;;;;;;;3.30;1.23;;;12.70;96.30;;;;;;5015429;28;20177;-78
2022/07/07 06:45:51;;;;;;;1.67;1.20;;;12.80;96.30;;;;;;5015536;28;20485;-78
2022/07/07 06:48:16;;;;;;;4.47;1.20;;;13.10;96.30;;;;;;5015201;28;20598;-78
2022/07/07 06:50:42;;;;;;;2.27;1.00;;;13.30;96.30;;;;;;5015478;28;20197;-78
2022/07/07 06:53:08;;;;;;;1.40;0.90;;;13.30;96.30;;;;;;4997455;28;20652;-78
2022/07/07 06:55:33;;;;;;;3.67;1.20;;;13.40;96.30;;;;;;5015000;28;20177;-78
2022/07/07 06:57:59;;;;;;;2.00;1.03;;;13.50;96.30;;;;;;5014963;28;20263;-78
2022/07/07 07:00:24;;;;;;;4.43;1.20;;;13.50;96.30;;;;;;4997430;28;20185;-78
2022/07/07 07:02:50;;;;;;;4.40;1.30;;;13.50;96.30;;;;;;5014976;28;20732;-78
2022/07/07 07:05:16;;;;;;;5.63;1.20;;;13.30;96.30;;;;;;4997292;28;20181;-77
2022/07/07 07:07:41;;;;;;;3.33;1.10;;;13.30;96.30;;;;;;5010067;28;20649;-76
2022/07/07 07:10:08;;;;;;;2.97;0.97;;;13.30;96.30;;;;;;4997859;28;20197;-78
2022/07/07 07:12:34;;;;;;;3.80;1.30;;;13.20;96.30;;;;;;4997922;28;20223;-77
2022/07/07 07:14:59;;;;;;;7.33;1.67;;;13.00;96.30;;;;;;5008206;28;20420;-77
2022/07/07 07:17:25;;;;;;;1.40;1.00;;;12.80;96.30;;;;;;4996943;28;20212;-77
2022/07/07 07:19:51;;;;;;;5.80;1.43;;;12.70;96.30;;;;;;5014445;28;20647;-78
2022/07/07 07:22:17;;;;;;;2.30;1.23;;;12.50;96.30;;;;;;5014279;28;20432;-78
2022/07/07 07:24:43;;;;;;;3.00;1.30;;;12.40;96.30;;;;;;4996622;28;20632;-78
2022/07/07 07:27:08;;;;;;;5.60;1.50;;;12.40;96.30;;;;;;5014541;28;20416;-78
2022/07/07 07:29:34;;;;;;;3.40;1.17;;;12.40;96.30;;;;;;5014115;28;20207;-77
2022/07/07 07:31:59;;;;;;;2.57;1.20;;;12.40;96.30;;;;;;4996614;28;20238;-78
2022/07/07 07:34:25;;;;;;;3.87;1.30;;;12.50;96.30;;;;;;5016685;28;20177;-78
2022/07/07 07:36:50;;;;;;;1.60;1.20;;;12.70;96.30;;;;;;5017668;28;20219;-78
2022/07/07 07:39:16;;;;;;;4.90;1.40;;;12.80;96.30;;;;;;5016311;28;20232;-78
2022/07/07 07:41:43;;;;;;;4.03;1.70;;;12.80;96.30;;;;;;4997409;28;20792;-78
2022/07/07 07:44:09;;;;;;;3.90;1.30;;;12.70;96.30;;;;;;4997384;28;20248;-77
2022/07/07 07:46:35;;;;;;;2.63;1.20;;;12.80;96.30;;;;;;4996950;28;20431;-77
2022/07/07 07:49:05;;;;;;;6.80;1.50;;;12.90;96.30;;;;;;4996945;28;20179;-78
2022/07/07 07:51:33;;;;;;;4.50;1.60;;;12.90;96.30;;;;;;5014819;28;20192;-78
2022/07/07 07:53:59;;;;;;;2.17;1.33;;;12.90;96.30;;;;;;5014555;28;20411;-78
2022/07/07 07:56:24;;;;;;;5.40;1.80;;;12.90;96.30;;;;;;5014532;28;20470;-78
2022/07/07 07:58:50;;;;;;;2.47;1.50;;;13.10;96.30;;;;;;5013887;28;20212;-77
2022/07/07 08:01:16;;;;;;;3.03;1.30;;;13.10;96.30;;;;;;5008086;28;20227;-76
2022/07/07 08:03:41;;;;;;;5.83;1.70;;;13.10;96.30;;;;;;4979481;28;20195;-77
2022/07/07 08:06:07;;;;;;;4.50;1.87;;;13.20;96.30;;;;;;4998088;28;20181;-77
2022/07/07 08:08:33;;;;;;;2.60;1.90;;;13.20;96.30;;;;;;5008910;28;20687;-78
2022/07/07 08:10:58;;;;;;;2.30;1.87;;;13.30;96.30;;;;;;4996473;28;20628;-77
2022/07/07 08:13:24;;;;;;;2.80;2.10;;;13.30;96.30;;;;;;4996163;28;20559;-77
2022/07/07 08:15:50;;;;;;;5.13;2.37;;;13.30;96.30;;;;;;4996166;28;20189;-76
2022/07/07 08:18:16;;;;;;;5.37;2.40;;;13.50;96.30;;;;;;5013060;28;20661;-77
2022/07/07 08:20:41;;;;;;;5.53;3.50;;;13.60;96.30;;;;;;5012809;28;20455;-78
2022/07/07 08:23:07;;;;;;;3.70;2.20;;;13.70;96.30;;;;;;5013611;28;20181;-77
2022/07/07 08:25:33;;;;;;;4.17;2.20;;;13.80;96.30;;;;;;5013196;28;20195;-77
2022/07/07 08:27:59;;;;;;;4.40;2.60;;;13.90;96.30;;;;;;4995278;28;20184;-78
2022/07/07 08:30:25;;;;;;;3.80;2.53;;;13.90;96.30;;;;;;5013452;28;20522;-78
2022/07/07 08:32:51;;;;;;;5.13;2.40;;;14.00;96.30;;;;;;5013514;28;20841;-77
2022/07/07 08:35:17;;;;;;;2.87;2.00;;;14.00;96.30;;;;;;5014268;28;20187;-77
2022/07/07 08:37:43;;;;;;;3.93;2.20;;;14.10;96.30;;;;;;4995588;28;20539;-77
2022/07/07 08:40:09;;;;;;;2.50;2.30;;;14.00;96.30;;;;;;5013551;28;20219;-78
2022/07/07 08:42:34;;;;;;;3.07;1.93;;;14.00;96.30;;;;;;5013467;28;20761;-78
2022/07/07 08:45:00;;;;;;;3.80;2.50;;;13.80;96.30;;;;;;4995393;28;20511;-78
2022/07/07 08:47:25;;;;;;;3.03;2.73;;;14.20;96.30;;;;;;4994660;28;20183;-76
2022/07/07 08:49:51;;;;;;;2.50;2.30;;;14.30;96.30;;;;;;4994272;28;20176;-77
2022/07/07 08:52:18;;;;;;;2.67;2.00;;;14.40;96.30;;;;;;4994572;28;20204;-77
2022/07/07 08:54:45;;;;;;;3.87;2.27;;;14.30;96.30;;;;;;5010631;28;20165;-77
2022/07/07 08:57:10;;;;;;;3.43;2.17;;;14.20;96.30;;;;;;5010105;28;20463;-77
2022/07/07 08:59:36;;;;;;;3.47;2.37;;;14.00;96.30;;;;;;5009805;28;20833;-77
2022/07/07 09:02:02;;;;;;;2.90;2.50;;;13.90;96.30;;;;;;5004933;28;20205;-77
2022/07/07 09:04:28;;;;;;;4.37;2.17;;;13.80;96.30;;;;;;5000831;28;20181;-77
2022/07/07 09:06:58;;;;;;;2.43;2.23;;;13.80;96.30;;;;;;4993531;28;20412;-77
2022/07/07 09:09:40;;;;;;;2.63;2.40;;;13.80;96.30;;;;;;5011511;28;20763;-76
2022/07/07 09:12:07;;;;;;;2.13;1.93;;;14.00;96.30;;;;;;5004394;28;21169;-78
2022/07/07 09:14:47;;;;;;;4.43;2.30;;;14.00;96.30;;;;;;5003544;28;20412;-78
2022/07/07 09:17:30;;;;;;;2.20;2.00;;;13.80;96.30;;;;;;5010102;28;20447;-78
2022/07/07 09:20:06;;;;;;;2.90;2.57;;;13.70;96.30;;;;;;5007996;28;20415;-77
2022/07/07 09:22:43;;;;;;;3.30;2.50;;;13.90;96.30;;;;;;5010088;28;20811;-75
2022/07/07 09:25:09;;;;;;;2.60;2.40;;;14.00;96.30;;;;;;5007390;28;20837;-74
2022/07/07 09:27:51;;;;;;;2.30;2.13;;;14.00;96.30;;;;;;5007827;28;20947;-76
2022/07/07 09:30:27;;;;;;;2.30;2.07;;;13.90;96.30;;;;;;4990769;28;20183;-73
2022/07/07 09:32:53;;;;;;;2.70;2.50;;;13.80;96.30;;;;;;5008010;28;20411;-75
2022/07/07 09:38:15;;;;;;;3.13;2.27;;;13.70;96.30;;;;;;5008730;28;20458;-75
2022/07/07 09:41:10;;;;;;;2.10;1.90;;;13.70;96.30;;;;;;5012282;28;20960;-77
2022/07/07 09:43:38;;;;;;;2.13;1.80;;;13.60;96.30;;;;;;4992865;28;20415;-75
2022/07/07 09:46:10;;;;;;;2.80;2.23;;;13.60;96.30;;;;;;5011928;28;20814;-74
2022/07/07 09:48:38;;;;;;;2.97;2.70;;;13.60;96.30;;;;;;4993296;28;20473;-74
2022/07/07 09:51:27;;;;;;;4.17;2.43;;;13.70;96.30;;;;;;4994200;28;20454;-76
2022/07/07 09:53:59;;;;;;;3.90;2.50;;;13.50;96.30;;;;;;5010619;28;21144;-78
2022/07/07 09:56:38;;;;;;;4.83;2.10;;;13.40;96.30;;;;;;5011546;28;20438;-74
2022/07/07 09:59:16;;;;;;;3.60;2.70;;;13.40;96.30;;;;;;5010982;28;20422;-74
2022/07/07 10:01:44;;;;;;;3.13;2.13;;;13.50;96.30;;;;;;5011348;28;20436;-74
2022/07/07 10:04:19;;;;;;;2.70;2.50;;;13.60;96.30;;;;;;5010486;28;20443;-76
2022/07/07 10:06:45;;;;;;;2.80;2.60;;;13.60;96.30;;;;;;5011807;28;20416;-75
2022/07/07 10:09:20;;;;;;;2.80;2.60;;;13.50;96.30;;;;;;4992516;28;20435;-75
2022/07/07 10:11:55;;;;;;;2.37;2.17;;;13.50;96.30;;;;;;4983748;28;20479;-76
2022/07/07 10:14:27;;;;;;;9.53;3.03;;;13.40;96.30;;;;;;5009723;28;20958;-78
2022/07/07 10:16:54;;;;;;;2.73;2.53;;;13.30;96.30;;;;;;5008343;28;20491;-77
2022/07/07 10:19:23;;;;;;;4.50;2.77;;;13.30;96.30;;;;;;5011203;28;20424;-76
2022/07/07 10:21:57;;;;;;;12.10;2.77;;;13.30;96.30;;;;;;5008661;28;20434;-77
2022/07/07 10:24:27;;;;;;;3.00;2.80;;;13.20;96.30;;;;;;5007214;28;20416;-78
2022/07/07 10:26:55;;;;;;;4.97;2.67;;;13.40;96.30;;;;;;5007878;28;20415;-76
2022/07/07 10:29:38;;;;;;;3.43;3.07;;;13.70;96.30;;;;;;5006518;28;20419;-77
2022/07/07 11:21:17;;;;;;;2.47;2.20;;;15.20;96.30;;;;;;5217308;23;20853;-76
2022/07/07 11:23:54;;;;;;;3.20;2.50;;;15.50;96.30;;;;;;4994508;28;20841;-77
2022/07/07 11:26:23;;;;;;;2.83;2.10;;;16.00;96.30;;;;;;4978859;28;20401;-76
2022/07/07 11:28:49;;;;;;;2.23;2.07;;;16.20;96.30;;;;;;4994373;28;20413;-76
2022/07/07 11:31:15;;;;;;;2.47;2.17;;;16.30;96.30;;;;;;4991410;28;20437;-77
2022/07/07 11:33:41;;;;;;;3.70;2.20;;;16.90;96.30;;;;;;4965136;28;20416;-77
2022/07/07 11:36:11;;;;;;;4.33;2.10;;;16.90;96.30;;;;;;4993230;28;20186;-78
2022/07/07 11:38:37;;;;;;;2.60;2.30;;;17.00;96.30;;;;;;4993916;28;20464;-79
2022/07/07 11:41:03;;;;;;;2.93;1.97;;;16.60;96.30;;;;;;4993565;28;20499;-76
2022/07/07 11:43:28;;;;;;;3.00;2.03;;;16.80;96.30;;;;;;4993813;28;20169;-76
2022/07/07 11:45:54;;;;;;;2.30;2.10;;;16.90;96.30;;;;;;4993454;28;20408;-76
2022/07/07 11:48:21;;;;;;;3.07;1.93;;;16.90;96.30;;;;;;4993498;28;20253;-76
2022/07/07 11:50:48;;;;;;;2.67;1.80;;;16.80;96.30;;;;;;4993362;28;20197;-76
2022/07/07 11:53:13;;;;;;;2.13;1.93;;;16.40;96.30;;;;;;4994497;28;20420;-78
2022/07/07 11:55:39;;;;;;;1.97;1.87;;;16.50;96.30;;;;;;4993954;28;20425;-76
2022/07/07 11:58:06;;;;;;;2.77;1.80;;;16.20;96.30;;;;;;4993831;28;20252;-76
2022/07/07 12:00:33;;;;;;;2.40;2.07;;;16.00;96.30;;;;;;4993759;28;20182;-78
2022/07/07 12:03:00;;;;;;;8.47;2.17;;;15.90;96.30;;;;;;4993986;28;20460;-76
2022/07/07 12:05:28;;;;;;;2.10;1.90;;;15.60;96.30;;;;;;4975879;28;20555;-76
2022/07/07 12:07:59;;;;;;;10.50;2.40;;;15.40;96.30;;;;;;4975400;28;20445;-76
2022/07/07 12:10:30;;;;;;;2.40;2.17;;;15.30;96.30;;;;;;4993809;28;20428;-76
2022/07/07 12:13:02;;;;;;;3.47;2.20;;;15.00;96.30;;;;;;4993169;28;20552;-76
2022/07/07 12:15:30;;;;;;;2.63;2.43;;;15.00;96.30;;;;;;4993679;28;20416;-76
2022/07/07 12:17:56;;;;;;;3.63;2.40;;;15.00;96.30;;;;;;4992908;28;20448;-76
2022/07/07 12:20:22;;;;;;;3.77;2.90;;;15.20;96.30;;;;;;4993435;28;20433;-76
2022/07/07 12:22:56;;;;;;;2.97;2.77;;;15.20;96.30;;;;;;4989555;28;20427;-77
2022/07/07 12:25:27;;;;;;;3.30;2.97;;;15.20;96.30;;;;;;4990140;28;20579;-75
2022/07/07 12:27:58;;;;;;;3.87;3.27;;;15.30;96.30;;;;;;4992872;28;20896;-76
2022/07/07 12:30:26;;;;;;;4.87;3.13;;;15.10;96.30;;;;;;4993238;28;20409;-75
2022/07/07 12:32:52;;;;;;;7.03;3.10;;;15.00;96.30;;;;;;4992888;28;20421;-75
2022/07/07 12:35:40;;;;;;;5.97;3.33;;;14.70;96.30;;;;;;4993381;28;20499;-77
2022/07/07 12:38:07;;;;;;;4.23;3.50;;;14.60;96.30;;;;;;4992823;28;20449;-76
2022/07/07 12:40:36;;;;;;;3.37;3.17;;;14.60;96.30;;;;;;4975467;28;20421;-75
2022/07/07 12:43:07;;;;;;;4.10;3.70;;;14.80;96.30;;;;;;4992825;28;20576;-75
2022/07/07 12:45:33;;;;;;;3.80;3.50;;;14.80;96.30;;;;;;4993076;28;20754;-76
2022/07/07 12:47:59;;;;;;;3.83;3.37;;;14.80;96.30;;;;;;4975187;28;20487;-77
2022/07/07 12:50:25;;;;;;;3.60;3.30;;;14.90;96.30;;;;;;4992878;28;20650;-76
2022/07/07 12:52:55;;;;;;;5.60;3.50;;;15.10;96.30;;;;;;4987891;28;20185;-76
2022/07/07 12:55:20;;;;;;;4.00;3.23;;;15.10;96.30;;;;;;4974972;28;20436;-76
2022/07/07 12:57:46;;;;;;;3.73;3.30;;;15.20;96.30;;;;;;4992501;28;20559;-76
2022/07/07 13:00:38;;;;;;;3.43;3.13;;;15.10;96.30;;;;;;4992781;28;20260;-76
2022/07/07 13:03:04;;;;;;;3.27;3.00;;;15.00;96.30;;;;;;4988621;28;20654;-75
2022/07/07 13:05:29;;;;;;;3.13;2.93;;;14.80;96.30;;;;;;4987228;28;20425;-77
2022/07/07 13:07:55;;;;;;;7.10;3.47;;;14.70;96.30;;;;;;4985577;28;20196;-75
2022/07/07 13:10:20;;;;;;;4.00;3.70;;;14.60;96.30;;;;;;4992345;28;20186;-76
2022/07/07 13:12:47;;;;;;;5.67;4.27;;;14.60;96.30;;;;;;4974941;28;20182;-75
2022/07/07 13:15:12;;;;;;;4.00;3.67;;;14.40;96.30;;;;;;4992307;28;20180;-75
2022/07/07 13:17:38;;;;;;;4.30;3.90;;;14.30;96.30;;;;;;4978236;28;20465;-76
2022/07/07 13:20:04;;;;;;;3.80;3.50;;;14.30;96.30;;;;;;4990456;28;20695;-77
2022/07/07 13:22:29;;;;;;;4.10;3.80;;;14.30;96.30;;;;;;4992599;28;20292;-77
2022/07/07 13:24:55;;;;;;;4.23;3.83;;;14.40;96.30;;;;;;4991539;28;20817;-76
2022/07/07 13:27:20;;;;;;;5.57;4.00;;;14.50;96.30;;;;;;4992359;28;20988;-77
2022/07/07 13:29:46;;;;;;;4.33;3.93;;;14.60;96.30;;;;;;4967184;28;20209;-78
2022/07/07 13:32:12;;;;;;;4.03;3.73;;;14.70;96.30;;;;;;4987214;28;20205;-76
2022/07/07 13:34:37;;;;;;;4.47;4.00;;;14.60;96.30;;;;;;4974339;28;20185;-76
2022/07/07 13:37:03;;;;;;;3.67;3.37;;;14.60;96.30;;;;;;4992335;28;20712;-77
2022/07/07 13:39:28;;;;;;;4.23;3.77;;;14.70;96.30;;;;;;4991266;28;20184;-77
2022/07/07 13:41:54;;;;;;;4.70;4.30;;;14.90;96.30;;;;;;4991549;28;20561;-76
2022/07/07 13:44:19;;;;;;;4.70;3.90;;;14.80;96.30;;;;;;4991316;28;20162;-76
2022/07/07 13:46:45;;;;;;;6.00;3.73;;;14.80;96.30;;;;;;4991776;28;20178;-78
2022/07/07 13:49:11;;;;;;;4.40;4.00;;;14.90;96.30;;;;;;4988062;28;20181;-78
2022/07/07 13:51:37;;;;;;;5.00;3.63;;;15.00;96.30;;;;;;4987984;28;20201;-80
2022/07/07 13:54:03;;;;;;;3.50;3.30;;;15.00;96.30;;;;;;4989548;28;20188;-81
2022/07/07 13:56:28;;;;;;;3.93;3.63;;;15.20;96.30;;;;;;4988945;28;20963;-80
2022/07/07 13:58:54;;;;;;;3.93;3.63;;;15.30;96.30;;;;;;4982609;28;20260;-80
2022/07/07 14:01:19;;;;;;;4.33;3.93;;;15.30;96.30;;;;;;4982303;28;20201;-80
2022/07/07 14:03:45;;;;;;;3.50;3.20;;;15.40;96.30;;;;;;4993936;28;20221;-80
2022/07/07 14:06:10;;;;;;;3.40;3.10;;;15.60;96.30;;;;;;4992753;28;20888;-77
2022/07/07 14:08:36;;;;;;;4.47;4.10;;;15.60;96.30;;;;;;4991726;28;20173;-78
2022/07/07 14:11:02;;;;;;;3.80;3.40;;;15.60;96.30;;;;;;4992295;28;20277;-76
2022/07/07 14:13:27;;;;;;;4.03;3.63;;;15.60;96.30;;;;;;4992469;28;20200;-77
2022/07/07 14:15:52;;;;;;;3.80;3.50;;;15.40;96.30;;;;;;4992246;28;20213;-77
2022/07/07 14:18:18;;;;;;;3.40;3.10;;;15.40;96.30;;;;;;4991691;28;20236;-77
2022/07/07 14:20:43;;;;;;;3.77;3.50;;;15.40;96.30;;;;;;4992053;28;20585;-80
2022/07/07 14:23:09;;;;;;;6.93;4.00;;;15.50;96.30;;;;;;4992189;28;20180;-77
2022/07/07 14:25:34;;;;;;;4.07;3.67;;;15.60;96.30;;;;;;4993678;28;20177;-76
2022/07/07 14:28:00;;;;;;;4.30;4.00;;;15.90;96.30;;;;;;4995127;28;20185;-78
2022/07/07 14:30:25;;;;;;;4.40;4.00;;;16.20;96.30;;;;;;4995644;28;20232;-77
2022/07/07 14:32:51;;;;;;;5.90;3.30;;;16.40;96.30;;;;;;4995854;28;20181;-77
2022/07/07 14:35:17;;;;;;;3.73;3.43;;;16.80;96.30;;;;;;4995855;28;20664;-79
2022/07/07 14:37:42;;;;;;;4.13;3.83;;;17.20;96.30;;;;;;4995499;28;20205;-80
2022/07/07 14:40:08;;;;;;;5.20;3.40;;;17.40;96.30;;;;;;4987548;28;20182;-77
2022/07/07 14:42:33;;;;;;;3.73;3.43;;;17.70;96.30;;;;;;4993720;28;20204;-77
2022/07/07 14:44:59;;;;;;;10.10;2.97;;;18.10;96.30;;;;;;4995717;28;20186;-78
2022/07/07 14:47:24;;;;;;;2.77;2.57;;;18.70;96.30;;;;;;4995570;28;20186;-80
2022/07/07 14:49:50;;;;;;;2.93;2.63;;;18.60;96.30;;;;;;4995557;28;20577;-77
2022/07/07 14:52:16;;;;;;;2.90;2.70;;;18.60;96.30;;;;;;4995472;28;20244;-77
2022/07/07 14:54:42;;;;;;;6.67;3.67;;;18.60;96.30;;;;;;4995463;28;20174;-78
2022/07/07 14:57:08;;;;;;;4.33;3.23;;;18.40;96.30;;;;;;4977731;28;20701;-78
2022/07/07 14:59:33;;;;;;;2.63;2.43;;;18.20;96.30;;;;;;4995212;28;20169;-78
2022/07/07 15:01:59;;;;;;;2.90;2.70;;;18.00;96.30;;;;;;4995320;28;20255;-77
2022/07/07 15:04:25;;;;;;;4.77;3.40;;;17.60;96.30;;;;;;4995379;28;20181;-77
2022/07/07 15:06:51;;;;;;;9.53;3.27;;;17.60;96.30;;;;;;4977796;28;20701;-77
2022/07/07 15:09:17;;;;;;;3.03;2.83;;;18.00;96.30;;;;;;4994853;28;20901;-77
2022/07/07 15:11:43;;;;;;;5.40;2.57;;;18.30;96.30;;;;;;4994933;28;20483;-77
2022/07/07 15:14:09;;;;;;;2.77;2.57;;;18.50;96.30;;;;;;4995047;28;20646;-77
2022/07/07 15:16:34;;;;;;;4.73;3.27;;;18.50;96.30;;;;;;4994758;28;20229;-77
2022/07/07 15:19:00;;;;;;;2.90;2.70;;;18.80;96.30;;;;;;4994735;28;20720;-79
2022/07/07 15:21:26;;;;;;;10.20;3.10;;;18.50;96.30;;;;;;4994609;28;20213;-77
2022/07/07 15:23:51;;;;;;;3.73;2.60;;;18.20;96.30;;;;;;4977202;28;20169;-77
2022/07/07 15:26:17;;;;;;;3.40;2.60;;;18.00;96.30;;;;;;4994628;28;20503;-77
2022/07/07 15:28:43;;;;;;;3.03;2.30;;;17.80;96.30;;;;;;4994386;28;20637;-77
2022/07/07 15:31:12;;;;;;;3.50;2.60;;;17.70;96.30;;;;;;4994538;28;20198;-77
2022/07/07 15:33:38;;;;;;;2.50;2.30;;;17.40;96.30;;;;;;4994573;28;20851;-77
2022/07/07 15:36:05;;;;;;;2.90;2.63;;;17.50;96.30;;;;;;4994140;28;20500;-77
2022/07/07 15:38:32;;;;;;;2.83;2.20;;;17.70;96.30;;;;;;4994026;28;20492;-78
2022/07/07 15:40:57;;;;;;;3.57;3.27;;;17.70;96.30;;;;;;4994295;28;20523;-77
2022/07/07 15:43:23;;;;;;;2.93;2.63;;;17.60;96.30;;;;;;4994234;28;20921;-77
2022/07/07 15:45:48;;;;;;;4.47;2.80;;;17.30;96.30;;;;;;4994388;28;20257;-77
2022/07/07 15:48:14;;;;;;;2.73;2.53;;;17.00;96.30;;;;;;4994029;28;20193;-77
2022/07/07 15:50:39;;;;;;;3.60;3.00;;;17.00;96.30;;;;;;4976691;28;20276;-77
2022/07/07 15:53:05;;;;;;;3.90;3.50;;;16.80;96.30;;;;;;4994075;28;20261;-78
2022/07/07 15:55:31;;;;;;;3.00;2.80;;;16.70;96.30;;;;;;4994146;28;20638;-77
2022/07/07 15:57:56;;;;;;;3.53;3.23;;;16.60;96.30;;;;;;4993741;28;20612;-77
2022/07/07 16:00:22;;;;;;;4.87;2.93;;;16.50;96.30;;;;;;4993999;28;20212;-77
2022/07/07 16:02:47;;;;;;;3.53;3.23;;;16.40;96.30;;;;;;4994108;28;20178;-79
2022/07/07 16:05:14;;;;;;;3.23;2.93;;;16.20;96.30;;;;;;4994151;28;20201;-79
2022/07/07 16:07:39;;;;;;;4.30;3.40;;;16.20;96.30;;;;;;4993572;28;20417;-76
2022/07/07 16:10:06;;;;;;;5.13;2.90;;;16.00;96.30;;;;;;4981936;28;20186;-73
2022/07/07 16:12:32;;;;;;;4.47;2.70;;;15.70;96.30;;;;;;4974227;28;20194;-73
2022/07/07 16:14:57;;;;;;;3.00;2.80;;;15.50;96.30;;;;;;4961051;28;20482;-73
2022/07/07 16:17:23;;;;;;;4.40;3.60;;;15.30;96.30;;;;;;4993424;28;20692;-74
2022/07/07 16:19:48;;;;;;;10.80;3.90;;;15.30;96.30;;;;;;4993010;28;20177;-73
2022/07/07 16:22:14;;;;;;;3.93;3.63;;;15.20;96.30;;;;;;4985457;28;20201;-76
2022/07/07 16:24:40;;;;;;;7.87;4.00;;;15.00;96.30;;;;;;4993392;28;20182;-75
2022/07/07 16:27:06;;;;;;;4.27;3.80;;;14.90;96.30;;;;;;4993165;28;20189;-75
2022/07/07 16:29:31;;;;;;;5.57;4.17;;;14.80;96.30;;;;;;4992797;28;20668;-75
2022/07/07 16:31:57;;;;;;;5.30;4.70;;;14.80;96.30;;;;;;5034271;23;20501;-66
2022/07/07 16:34:23;;;;;;;5.40;4.70;;;14.80;96.30;;;;;;4985003;28;20651;-66
2022/07/07 16:36:48;;;;;;;5.80;3.93;;;14.80;96.30;;;;;;4993469;28;20184;-66
2022/07/07 16:39:16;;;;;;;4.70;3.90;;;14.80;96.30;;;;;;4992489;28;20166;-78
2022/07/07 16:41:45;;;;;;;4.30;3.97;;;14.90;96.30;;;;;;4993834;28;20610;-78
2022/07/07 16:44:11;;;;;;;4.03;3.70;;;14.90;96.30;;;;;;4993723;28;21119;-79
2022/07/07 16:46:37;;;;;;;4.30;3.90;;;15.00;96.30;;;;;;4991147;28;20437;-78
2022/07/07 16:49:03;;;;;;;4.20;3.80;;;15.10;96.30;;;;;;4991488;28;20184;-78
2022/07/07 16:51:29;;;;;;;6.10;4.03;;;15.10;96.30;;;;;;4993125;28;20235;-77
2022/07/07 16:53:57;;;;;;;4.90;3.30;;;15.10;96.30;;;;;;4992689;28;20475;-77
2022/07/07 16:56:22;;;;;;;3.33;3.13;;;15.10;96.30;;;;;;4991980;28;20584;-77
2022/07/07 16:58:48;;;;;;;3.57;2.60;;;15.20;96.30;;;;;;4992163;28;20452;-76
2022/07/07 17:01:13;;;;;;;3.57;3.30;;;15.20;96.30;;;;;;4992352;28;20194;-75
2022/07/07 17:03:39;;;;;;;3.10;2.80;;;15.30;96.30;;;;;;4990729;28;20197;-76
2022/07/07 17:06:05;;;;;;;4.33;2.60;;;15.30;96.30;;;;;;4975132;28;20193;-75
2022/07/07 17:08:30;;;;;;;4.67;2.13;;;15.30;96.30;;;;;;4992045;28;20161;-76
2022/07/07 17:10:56;;;;;;;2.17;1.70;;;15.30;96.30;;;;;;4992306;28;20201;-77
2022/07/07 17:13:22;;;;;;;2.17;1.70;;;15.10;96.30;;;;;;4992560;28;20185;-77
2022/07/07 17:15:48;;;;;;;3.70;1.67;;;15.10;96.30;;;;;;4974837;28;20189;-78
2022/07/07 17:18:13;;;;;;;2.53;1.57;;;15.00;96.30;;;;;;4974297;28;20672;-78
2022/07/07 17:20:39;;;;;;;1.83;1.50;;;15.00;96.30;;;;;;4991983;28;20543;-76
2022/07/07 17:23:05;;;;;;;2.93;1.40;;;14.90;96.30;;;;;;4974030;28;20193;-75
2022/07/07 17:25:30;;;;;;;8.80;1.00;;;14.80;96.30;;;;;;4991579;28;20236;-74
2022/07/07 17:27:57;;;;;;;1.17;1.07;;;14.80;96.30;;;;;;4991328;28;20280;-74
2022/07/07 17:30:25;;;;;;;2.30;1.00;;;14.70;96.30;;;;;;4992467;28;20209;-73
2022/07/07 17:32:52;;;;;;;4.33;1.20;;;14.60;96.30;;;;;;4991923;28;20468;-73
2022/07/07 17:35:20;;;;;;;4.90;1.10;;;14.60;96.30;;;;;;4992286;28;20500;-75
2022/07/07 17:37:47;;;;;;;2.50;1.20;;;14.60;96.30;;;;;;4991266;28;20880;-73
2022/07/07 17:40:14;;;;;;;2.03;1.10;;;14.50;96.30;;;;;;4974476;28;20785;-73
2022/07/07 17:42:39;;;;;;;1.10;0.90;;;14.40;96.30;;;;;;4992211;28;20469;-73
2022/07/07 17:45:05;;;;;;;3.03;1.10;;;14.40;96.30;;;;;;4992177;28;20931;-76
2022/07/07 17:47:31;;;;;;;2.53;1.43;;;14.40;96.30;;;;;;4991270;28;20190;-76